Skip to main content.
 TIME   TEMPERATURE   WINDSPEED   DIRECTION   HUMIDITY   BAROMETER   RAINFALL 
8:10 12.0°C (53.6°F) 7.4 kmh (4.6 mph) WNW 81% 1026.1hPa (30.30 inHg) 0.0mm (0.00 in.)
7:10 10.0°C (50.0 °F) 13.0 kmh (8.1 mph) WNW 87% 1025.1hPa (30.27 inHg) 0.0mm (0.00 in.)
6:10 10.0°C (50.0 °F) 13.0 kmh (8.1 mph) WNW 93% 1025.1hPa (30.27 inHg) 0.0mm (0.00 in.)
5:10 10.0°C (50.0 °F) 11.1 kmh (6.9 mph) NW 87% 1024.0hPa (30.24 inHg) 0.0mm (0.00 in.)
4:10 10.0°C (50.0 °F) 7.4 kmh (4.6 mph) W 87% 1024.0hPa (30.24 inHg) 0.0mm (0.00 in.)
3:10 10.0°C (50.0 °F) 13.0 kmh (8.1 mph) NW 93% 1025.1hPa (30.27 inHg) 0.0mm (0.00 in.)
2:10 11.0°C (51.8 °F) 11.1 kmh (6.9 mph) WNW 87% 1025.1hPa (30.27 inHg) 0.0mm (0.00 in.)
1:10 11.0°C (51.8 °F) 11.1 kmh (6.9 mph) WNW 87% 1025.1hPa (30.27 inHg) 0.0mm (0.00 in.)
0:10 11.0°C (51.8 °F) 13.0 kmh (8.1 mph) WSW 87% 1025.1hPa (30.27 inHg) 0.0mm (0.00 in.)
23:10 11.0°C (51.8 °F) 11.1 kmh (6.9 mph) W 87% 1026.1hPa (30.30 inHg) 0.0mm (0.00 in.)
22:10 11.0°C (51.8 °F) 7.4 kmh (4.6 mph) WSW 81% 1026.1hPa (30.30 inHg) 0.0mm (0.00 in.)
21:10 11.0°C (51.8 °F) 11.1 kmh (6.9 mph) WNW 81% 1025.1hPa (30.27 inHg) 0.0mm (0.00 in.)
20:10 11.0°C (51.8 °F) 11.1 kmh (6.9 mph) WNW 81% 1025.1hPa (30.27 inHg) 0.0mm (0.00 in.)
19:10 12.0°C (53.6 °F) 11.1 kmh (6.9 mph) WNW 76% 1025.1hPa (30.27 inHg) 0.0mm (0.00 in.)
18:10 14.0°C (57.2 °F) 13.0 kmh (8.1 mph) NW 67% 1024.0hPa (30.24 inHg) 0.0mm (0.00 in.)
17:10 15.0°C (59.0 °F) 16.7 kmh (10.4 mph) WNW 62% 1024.0hPa (30.24 inHg) 0.0mm (0.00 in.)
16:10 16.0°C (60.8 °F) 14.8 kmh (9.2 mph) W 55% 1024.0hPa (30.24 inHg) 0.0mm (0.00 in.)
15:10 16.0°C (60.8 °F) 18.5 kmh (11.5 mph) WNW 51% 1024.0hPa (30.24 inHg) 0.0mm (0.00 in.)
14:10 16.0°C (60.8 °F) 13.0 kmh (8.1 mph) ENE 51% 1024.0hPa (30.24 inHg) 0.0mm (0.00 in.)
13:10 17.0°C (62.6 °F) 11.1 kmh (6.9 mph) SSW 51% 1025.1hPa (30.27 inHg) 0.0mm (0.00 in.)
12:10 17.0°C (62.6 °F) 7.4 kmh (4.6 mph) SW 48% 1025.1hPa (30.27 inHg) 0.0mm (0.00 in.)
11:10 16.0°C (60.8 °F) 7.4 kmh (4.6 mph) WNW 47% 1025.1hPa (30.27 inHg) 0.0mm (0.00 in.)
10:10 16.0°C (60.8 °F) 5.6 kmh (3.5 mph) NW 55% 1025.1hPa (30.27 inHg) 0.0mm (0.00 in.)
9:10 14.0°C (57.2 °F) 9.3 kmh (5.8 mph) WNW 67% 1025.1hPa (30.27 inHg) 0.0mm (0.00 in.)